Time;durP1;ratioP1;P1;durP2;ratioP2;P2;SDS_P1;SDS_P2;PMS_P1;PMS_P2;Temp;Humidity;BMP_temperature;BMP_pressure;BME280_temperature;BME280_humidity;BME280_pressure;Samples;Min_cycle;Max_cycle;Signal;HPM_P1;HPM_P2
2024/01/23 00:01:03;;;;;;;9.57;1.85;;;7.00;99.90;;;;;;5046394;28;20052;-79
2024/01/23 00:03:30;;;;;;;18.38;3.22;;;7.00;99.90;;;;;;5054717;28;20060;-80
2024/01/23 00:05:56;;;;;;;16.27;2.28;;;6.90;99.90;;;;;;5051891;28;20048;-79
2024/01/23 00:08:21;;;;;;;15.48;2.05;;;6.90;99.90;;;;;;5037274;28;20116;-79
2024/01/23 00:10:47;;;;;;;10.75;1.85;;;6.80;99.90;;;;;;5055022;28;20418;-81
2024/01/23 00:13:13;;;;;;;13.70;2.10;;;6.90;99.90;;;;;;5047579;28;20044;-79
2024/01/23 00:15:38;;;;;;;13.65;2.60;;;6.70;99.90;;;;;;5038859;28;20041;-79
2024/01/23 00:18:06;;;;;;;11.55;1.83;;;6.90;99.90;;;;;;5038836;28;20389;-81
2024/01/23 00:20:31;;;;;;;13.82;2.55;;;6.90;99.90;;;;;;5038684;28;20462;-80
2024/01/23 00:22:57;;;;;;;14.20;2.60;;;6.90;99.90;;;;;;5049472;28;20119;-80
2024/01/23 00:25:23;;;;;;;14.60;1.90;;;6.90;99.90;;;;;;5038672;28;20048;-79
2024/01/23 00:27:48;;;;;;;15.77;2.95;;;6.80;99.90;;;;;;5038652;28;20128;-80
2024/01/23 00:30:14;;;;;;;11.88;2.60;;;6.70;99.90;;;;;;5054973;28;20396;-79
2024/01/23 00:32:41;;;;;;;13.27;2.60;;;6.80;99.90;;;;;;5055091;28;20036;-80
2024/01/23 00:35:07;;;;;;;17.27;2.78;;;6.80;99.90;;;;;;5054328;28;20079;-80
2024/01/23 00:37:32;;;;;;;13.80;2.67;;;6.70;99.90;;;;;;5055296;28;20036;-79
2024/01/23 00:39:59;;;;;;;19.38;2.97;;;6.70;99.90;;;;;;5073716;28;20445;-80
2024/01/23 00:42:26;;;;;;;11.70;2.22;;;6.70;99.90;;;;;;5040022;28;20047;-80
2024/01/23 00:44:53;;;;;;;16.08;2.13;;;6.80;99.90;;;;;;5036656;28;20055;-79
2024/01/23 00:47:19;;;;;;;10.48;1.95;;;6.70;99.90;;;;;;5037775;28;20519;-80
2024/01/23 00:49:45;;;;;;;13.13;2.17;;;6.80;99.90;;;;;;5055017;28;20056;-80
2024/01/23 00:52:11;;;;;;;15.30;2.70;;;6.80;99.90;;;;;;5037050;28;20037;-80
2024/01/23 00:54:37;;;;;;;13.65;2.45;;;6.80;99.90;;;;;;5054588;28;20033;-79
2024/01/23 00:57:05;;;;;;;13.32;2.40;;;6.80;99.90;;;;;;5038903;28;20044;-79
2024/01/23 00:59:31;;;;;;;12.75;2.55;;;6.90;99.90;;;;;;5038026;28;20090;-80
2024/01/23 01:01:57;;;;;;;15.48;2.33;;;6.80;99.90;;;;;;5054939;28;20053;-80
2024/01/23 01:04:23;;;;;;;18.10;2.90;;;6.80;99.90;;;;;;5033277;28;20048;-80
2024/01/23 01:06:48;;;;;;;16.50;2.92;;;6.70;99.90;;;;;;5051596;28;20041;-80
2024/01/23 01:09:14;;;;;;;14.38;2.40;;;6.70;99.90;;;;;;5051405;28;20123;-80
2024/01/23 01:11:39;;;;;;;13.20;1.90;;;6.70;99.90;;;;;;5051974;28;20404;-78
2024/01/23 01:14:05;;;;;;;20.35;2.42;;;6.70;99.90;;;;;;5038614;28;20545;-80
2024/01/23 01:16:31;;;;;;;18.05;3.00;;;6.70;99.90;;;;;;5054120;28;20036;-79
2024/01/23 01:18:58;;;;;;;16.83;2.17;;;6.60;99.90;;;;;;5054852;28;20049;-80
2024/01/23 01:21:24;;;;;;;14.07;3.10;;;6.60;99.90;;;;;;5038142;28;20037;-80
2024/01/23 01:23:49;;;;;;;11.13;2.15;;;6.80;99.90;;;;;;5054223;28;20098;-79
2024/01/23 01:26:15;;;;;;;15.82;2.58;;;6.80;99.90;;;;;;5036702;28;20076;-80
2024/01/23 01:28:41;;;;;;;14.68;2.40;;;6.70;99.90;;;;;;5038051;28;20048;-79
2024/01/23 01:31:06;;;;;;;14.85;2.67;;;6.80;99.90;;;;;;5038593;28;20036;-80
2024/01/23 01:33:32;;;;;;;13.25;2.00;;;6.70;99.90;;;;;;5038073;28;20130;-79
2024/01/23 01:35:58;;;;;;;18.13;2.88;;;6.60;99.90;;;;;;5053156;28;20029;-80
2024/01/23 01:38:23;;;;;;;15.82;2.38;;;6.60;99.90;;;;;;5054706;28;20041;-79
2024/01/23 01:40:49;;;;;;;19.08;3.35;;;6.60;99.90;;;;;;5038306;28;20041;-80
2024/01/23 01:43:23;;;;;;;17.02;2.50;;;6.60;99.90;;;;;;5054606;28;20045;-80
2024/01/23 01:46:00;;;;;;;10.73;1.95;;;6.70;99.90;;;;;;5053673;28;20047;-79
2024/01/23 01:48:26;;;;;;;15.90;2.88;;;6.70;99.90;;;;;;5037869;28;20051;-80
2024/01/23 01:50:52;;;;;;;14.98;2.17;;;6.70;99.90;;;;;;5037172;28;20033;-79
2024/01/23 01:53:18;;;;;;;14.85;3.53;;;6.70;99.90;;;;;;5044140;28;20036;-79
2024/01/23 01:55:44;;;;;;;17.48;2.70;;;6.60;99.90;;;;;;5043853;28;20029;-80
2024/01/23 01:58:13;;;;;;;11.40;2.55;;;6.60;99.90;;;;;;5025691;28;20489;-80
2024/01/23 02:00:39;;;;;;;7.15;1.52;;;6.60;99.90;;;;;;5046585;28;20043;-80
2024/01/23 02:03:04;;;;;;;13.18;1.85;;;6.60;99.90;;;;;;5042062;28;20442;-79
2024/01/23 02:05:30;;;;;;;11.88;2.70;;;6.70;99.90;;;;;;5046910;28;20044;-80
2024/01/23 02:07:56;;;;;;;14.20;2.38;;;6.60;99.90;;;;;;5035951;28;20082;-80
2024/01/23 02:10:22;;;;;;;13.48;2.05;;;6.60;99.90;;;;;;5057847;28;20203;-79
2024/01/23 02:12:48;;;;;;;19.75;3.30;;;6.60;99.90;;;;;;5057728;28;20427;-79
2024/01/23 02:15:14;;;;;;;13.43;2.65;;;6.50;99.90;;;;;;5074619;28;20037;-79
2024/01/23 02:17:39;;;;;;;9.82;1.73;;;6.50;99.90;;;;;;5056274;28;20032;-78
2024/01/23 02:20:05;;;;;;;13.30;2.60;;;6.50;99.90;;;;;;5042822;28;20048;-79
2024/01/23 02:22:31;;;;;;;17.75;2.65;;;6.60;99.90;;;;;;5077790;28;20051;-79
2024/01/23 02:24:57;;;;;;;17.10;2.67;;;6.50;99.90;;;;;;5061012;28;20040;-79
2024/01/23 02:27:22;;;;;;;16.60;2.80;;;6.50;99.90;;;;;;5055494;28;20032;-79
2024/01/23 02:29:48;;;;;;;18.40;3.47;;;6.50;99.90;;;;;;5040766;28;20078;-80
2024/01/23 02:32:13;;;;;;;18.58;2.83;;;6.40;99.90;;;;;;5057463;28;20123;-79
2024/01/23 02:34:39;;;;;;;14.38;2.30;;;6.40;99.90;;;;;;5057488;28;20113;-79
2024/01/23 02:37:05;;;;;;;16.85;3.22;;;6.40;99.90;;;;;;5074067;28;20036;-79
2024/01/23 02:39:30;;;;;;;12.23;2.58;;;6.40;99.90;;;;;;5040032;28;20040;-80
2024/01/23 02:41:56;;;;;;;11.02;2.45;;;6.40;99.90;;;;;;5074165;28;20037;-79
2024/01/23 02:44:21;;;;;;;13.88;2.53;;;6.40;99.90;;;;;;5057223;28;20032;-79
2024/01/23 02:46:47;;;;;;;16.02;2.88;;;6.40;99.90;;;;;;5073450;28;20043;-79
2024/01/23 02:49:13;;;;;;;16.35;3.10;;;6.40;99.90;;;;;;5037719;28;20098;-80
2024/01/23 02:51:38;;;;;;;18.25;3.28;;;6.50;99.90;;;;;;5027138;28;20036;-80
2024/01/23 02:54:04;;;;;;;18.90;3.35;;;6.40;99.90;;;;;;5046172;28;20127;-79
2024/01/23 02:56:30;;;;;;;18.38;3.15;;;6.40;99.90;;;;;;5057063;28;20041;-80
2024/01/23 02:58:55;;;;;;;19.95;3.55;;;6.40;99.90;;;;;;5052336;28;20056;-79
2024/01/23 03:01:21;;;;;;;13.73;3.17;;;6.40;99.90;;;;;;5023688;28;20063;-79
2024/01/23 03:03:46;;;;;;;11.48;2.13;;;6.40;99.90;;;;;;5036703;28;20037;-80
2024/01/23 03:06:12;;;;;;;18.38;3.30;;;6.40;99.90;;;;;;5040887;28;20447;-79
2024/01/23 03:08:38;;;;;;;22.08;4.22;;;6.50;99.90;;;;;;5034003;28;20535;-79
2024/01/23 03:11:04;;;;;;;20.33;3.72;;;6.50;99.90;;;;;;5054529;28;20036;-80
2024/01/23 03:13:29;;;;;;;8.88;2.17;;;6.50;99.90;;;;;;5036689;28;20037;-79
2024/01/23 03:15:55;;;;;;;20.27;3.03;;;6.50;99.90;;;;;;5020406;28;20159;-79
2024/01/23 03:18:21;;;;;;;16.77;3.22;;;6.60;99.90;;;;;;5036668;28;20115;-79
2024/01/23 03:20:47;;;;;;;15.73;2.88;;;6.60;99.90;;;;;;5053094;28;20175;-79
2024/01/23 03:23:13;;;;;;;12.57;2.45;;;6.60;99.90;;;;;;5038576;28;20056;-79
2024/01/23 03:25:38;;;;;;;17.17;2.40;;;6.60;99.90;;;;;;5039869;28;20040;-79
2024/01/23 03:28:04;;;;;;;15.02;3.50;;;6.60;99.90;;;;;;5056821;28;20092;-79
2024/01/23 03:30:31;;;;;;;20.08;2.88;;;6.70;99.90;;;;;;5055397;28;20086;-80
2024/01/23 03:32:58;;;;;;;14.77;2.60;;;6.60;99.90;;;;;;5056277;28;20041;-81
2024/01/23 03:35:24;;;;;;;17.35;3.70;;;6.70;99.90;;;;;;5056208;28;20033;-81
2024/01/23 03:37:51;;;;;;;15.70;2.53;;;6.70;99.90;;;;;;5039261;28;20039;-80
2024/01/23 03:40:16;;;;;;;19.67;3.55;;;6.70;99.90;;;;;;5055131;28;20041;-80
2024/01/23 03:42:42;;;;;;;17.30;3.70;;;6.80;99.90;;;;;;5038830;28;20059;-79
2024/01/23 03:45:08;;;;;;;21.17;3.30;;;6.70;99.90;;;;;;5041478;28;20035;-79
2024/01/23 03:47:34;;;;;;;20.38;3.22;;;6.70;99.90;;;;;;5055906;28;20036;-79
2024/01/23 03:50:00;;;;;;;21.75;3.75;;;6.70;99.90;;;;;;5071521;28;20043;-80
2024/01/23 03:52:25;;;;;;;18.90;3.88;;;6.70;99.90;;;;;;5039407;28;20444;-80
2024/01/23 03:54:51;;;;;;;20.98;3.42;;;6.80;99.90;;;;;;5039156;28;20032;-79
2024/01/23 03:57:18;;;;;;;22.25;3.53;;;6.90;99.90;;;;;;5057323;28;20039;-79
2024/01/23 03:59:44;;;;;;;13.68;2.78;;;6.90;99.90;;;;;;5055596;28;20113;-79
2024/01/23 04:02:10;;;;;;;14.93;3.17;;;6.80;99.90;;;;;;5055067;28;20045;-80
2024/01/23 04:04:36;;;;;;;11.88;2.67;;;6.80;99.90;;;;;;5055575;28;20033;-80
2024/01/23 04:07:02;;;;;;;17.85;3.75;;;6.80;99.90;;;;;;5051752;28;20045;-79
2024/01/23 04:09:28;;;;;;;19.67;3.35;;;6.80;99.90;;;;;;5044089;28;20036;-79
2024/01/23 04:11:54;;;;;;;17.83;2.30;;;6.80;99.90;;;;;;5044021;28;20464;-79
2024/01/23 04:14:20;;;;;;;23.35;3.72;;;6.80;99.90;;;;;;5045281;28;20044;-79
2024/01/23 04:16:46;;;;;;;22.50;4.22;;;6.80;99.90;;;;;;5044094;28;20382;-79
2024/01/23 04:19:12;;;;;;;18.25;3.15;;;6.80;99.90;;;;;;5054202;28;20036;-79
2024/01/23 04:21:38;;;;;;;19.35;3.03;;;6.80;99.90;;;;;;5025663;28;20040;-79
2024/01/23 04:24:04;;;;;;;19.15;3.22;;;6.90;99.90;;;;;;5034139;28;20123;-79
2024/01/23 04:26:30;;;;;;;21.38;4.25;;;6.90;99.90;;;;;;5055133;28;20106;-79
2024/01/23 04:28:56;;;;;;;18.08;3.85;;;6.90;99.90;;;;;;5038257;28;20076;-79
2024/01/23 04:31:22;;;;;;;22.63;4.15;;;7.00;99.90;;;;;;5054490;28;20062;-79
2024/01/23 04:33:49;;;;;;;20.98;3.85;;;6.90;99.90;;;;;;5055148;28;20033;-79
2024/01/23 04:36:16;;;;;;;21.77;3.50;;;6.90;99.90;;;;;;5059337;28;20040;-78
2024/01/23 04:38:42;;;;;;;22.15;3.70;;;6.90;99.90;;;;;;5073283;28;20125;-79
2024/01/23 04:41:08;;;;;;;13.00;2.60;;;7.00;99.90;;;;;;5055313;28;20072;-79
2024/01/23 04:43:34;;;;;;;18.83;3.83;;;6.80;99.90;;;;;;5054370;28;20036;-80
2024/01/23 04:46:00;;;;;;;16.98;4.22;;;7.00;99.90;;;;;;5071762;28;20071;-79
2024/01/23 04:48:26;;;;;;;20.83;3.78;;;6.90;99.90;;;;;;5055188;28;20048;-80
2024/01/23 04:50:51;;;;;;;16.77;3.70;;;7.00;99.90;;;;;;5071790;28;20086;-81
2024/01/23 04:53:17;;;;;;;25.00;4.22;;;6.90;99.90;;;;;;5049147;28;20048;-79
2024/01/23 04:55:43;;;;;;;17.75;3.25;;;6.90;99.90;;;;;;5050967;28;20428;-80
2024/01/23 04:58:08;;;;;;;23.35;3.90;;;7.00;99.90;;;;;;5038254;28;20036;-79
2024/01/23 05:00:34;;;;;;;26.38;4.90;;;7.00;99.90;;;;;;5054954;28;20048;-80
2024/01/23 05:03:01;;;;;;;21.58;4.38;;;7.00;99.90;;;;;;5037417;28;20052;-80
2024/01/23 05:05:28;;;;;;;24.52;4.82;;;7.00;99.90;;;;;;5038391;28;20040;-81
2024/01/23 05:07:53;;;;;;;18.77;3.38;;;7.00;99.90;;;;;;5054738;28;20033;-80
2024/01/23 05:10:19;;;;;;;28.83;3.75;;;7.10;99.90;;;;;;5059604;28;20080;-80
2024/01/23 05:12:44;;;;;;;22.90;4.47;;;7.00;99.90;;;;;;5069576;28;20036;-79
2024/01/23 05:15:10;;;;;;;23.13;5.35;;;7.00;99.90;;;;;;5052937;28;20029;-80
2024/01/23 05:17:36;;;;;;;27.73;4.75;;;7.00;99.90;;;;;;5038103;28;20043;-80
2024/01/23 05:20:04;;;;;;;26.05;4.90;;;7.00;99.90;;;;;;5038161;28;20032;-79
2024/01/23 05:22:30;;;;;;;24.13;3.97;;;7.10;99.90;;;;;;5046911;28;20044;-79
2024/01/23 05:24:56;;;;;;;16.10;3.92;;;7.00;99.90;;;;;;5047719;28;20059;-79
2024/01/23 05:27:21;;;;;;;25.90;4.93;;;7.00;99.90;;;;;;5036069;28;20052;-80
2024/01/23 05:29:47;;;;;;;16.98;3.25;;;7.00;99.90;;;;;;5034119;28;20041;-81
2024/01/23 05:32:13;;;;;;;23.42;4.00;;;7.00;99.90;;;;;;5044493;28;20397;-80
2024/01/23 05:34:39;;;;;;;24.08;5.22;;;6.90;99.90;;;;;;5031592;28;20544;-80
2024/01/23 05:37:05;;;;;;;26.45;3.90;;;7.00;99.90;;;;;;5045999;28;20136;-81
2024/01/23 05:39:35;;;;;;;12.38;2.63;;;7.00;99.90;;;;;;5041926;28;20072;-80
2024/01/23 05:42:01;;;;;;;26.40;4.85;;;7.10;99.90;;;;;;5035280;28;20666;-80
2024/01/23 05:44:27;;;;;;;24.38;4.10;;;7.00;99.90;;;;;;5056883;28;20048;-80
2024/01/23 05:46:52;;;;;;;22.98;4.10;;;7.10;99.90;;;;;;5058147;28;20064;-80
2024/01/23 05:49:18;;;;;;;19.80;3.85;;;7.00;99.90;;;;;;5041599;28;20033;-80
2024/01/23 05:51:43;;;;;;;24.20;3.58;;;7.00;99.90;;;;;;5058076;28;20504;-80
2024/01/23 05:54:09;;;;;;;24.27;4.28;;;7.00;99.90;;;;;;5057027;28;20033;-81
2024/01/23 05:56:35;;;;;;;21.75;4.35;;;7.20;99.90;;;;;;5074843;28;20040;-80
2024/01/23 05:59:00;;;;;;;26.52;4.95;;;7.10;99.90;;;;;;5057806;28;20128;-80
2024/01/23 06:01:26;;;;;;;22.58;4.43;;;7.10;99.90;;;;;;5064117;28;20029;-79
2024/01/23 06:03:52;;;;;;;19.02;3.47;;;7.10;99.90;;;;;;5043183;28;20512;-80
2024/01/23 06:06:19;;;;;;;22.25;4.25;;;7.10;99.90;;;;;;5038391;28;20040;-80
2024/01/23 06:08:46;;;;;;;25.55;4.63;;;7.00;99.90;;;;;;5057638;28;20045;-79
2024/01/23 06:11:12;;;;;;;31.77;4.82;;;7.00;99.90;;;;;;5057724;28;20043;-80
2024/01/23 06:13:37;;;;;;;25.77;4.40;;;7.00;99.90;;;;;;5041238;28;20493;-80
2024/01/23 06:16:03;;;;;;;22.33;4.13;;;7.00;99.90;;;;;;5040085;28;20427;-80
2024/01/23 06:18:30;;;;;;;26.15;4.60;;;7.00;99.90;;;;;;5064255;28;20454;-79
2024/01/23 06:20:57;;;;;;;27.17;5.15;;;7.00;99.90;;;;;;5061019;28;20039;-81
2024/01/23 06:23:24;;;;;;;28.38;4.32;;;7.00;99.90;;;;;;5060066;28;20279;-80
2024/01/23 06:25:50;;;;;;;20.67;4.03;;;7.00;99.90;;;;;;5033727;28;20401;-79
2024/01/23 06:28:16;;;;;;;30.13;4.75;;;7.00;99.90;;;;;;5057296;28;20044;-80
2024/01/23 06:30:42;;;;;;;26.23;4.75;;;7.00;99.90;;;;;;5054983;28;20036;-80
2024/01/23 06:33:08;;;;;;;24.58;4.80;;;6.90;99.90;;;;;;5045634;28;20039;-80
2024/01/23 06:35:34;;;;;;;25.60;4.90;;;6.90;99.90;;;;;;5038532;28;20098;-80
2024/01/23 06:37:59;;;;;;;15.75;3.42;;;6.90;99.90;;;;;;5044576;28;20112;-80
2024/01/23 06:40:25;;;;;;;27.52;4.45;;;6.90;99.90;;;;;;5040793;28;20497;-80
2024/01/23 06:42:50;;;;;;;27.30;4.65;;;6.90;99.90;;;;;;5050736;28;20033;-80
2024/01/23 06:45:16;;;;;;;24.98;4.80;;;6.70;99.90;;;;;;5057107;28;20124;-81
2024/01/23 06:47:42;;;;;;;29.90;4.57;;;6.90;99.90;;;;;;5036307;28;20033;-80
2024/01/23 06:50:08;;;;;;;22.63;4.82;;;6.80;99.90;;;;;;5053630;28;20405;-80
2024/01/23 06:52:34;;;;;;;21.05;4.03;;;6.70;99.90;;;;;;5050180;28;20095;-80
2024/01/23 06:54:59;;;;;;;25.42;4.20;;;6.80;99.90;;;;;;5045428;28;20508;-80
2024/01/23 06:57:25;;;;;;;27.00;4.93;;;6.80;99.90;;;;;;5039286;28;20488;-80
2024/01/23 06:59:51;;;;;;;26.02;4.60;;;6.70;99.90;;;;;;5055590;28;20088;-80
2024/01/23 07:02:16;;;;;;;28.42;4.65;;;6.60;99.90;;;;;;5030642;28;20514;-80
2024/01/23 07:04:42;;;;;;;28.55;4.20;;;6.60;99.90;;;;;;5061511;28;20470;-80
2024/01/23 07:07:08;;;;;;;26.48;5.15;;;6.60;99.90;;;;;;5028634;28;20094;-81
2024/01/23 07:09:34;;;;;;;27.48;4.30;;;6.60;99.90;;;;;;5050826;28;20180;-80
2024/01/23 07:12:00;;;;;;;35.30;5.95;;;6.50;99.90;;;;;;5020779;28;20127;-81
2024/01/23 07:14:25;;;;;;;22.95;3.85;;;6.50;99.90;;;;;;5059276;28;20033;-81
2024/01/23 07:16:51;;;;;;;18.65;3.78;;;6.50;99.90;;;;;;5039733;28;20032;-81
2024/01/23 07:19:17;;;;;;;27.85;4.72;;;6.50;99.90;;;;;;5039633;28;20045;-81
2024/01/23 07:21:42;;;;;;;25.73;4.65;;;6.50;99.90;;;;;;5054285;28;20034;-80
2024/01/23 07:24:08;;;;;;;21.13;3.25;;;6.40;99.90;;;;;;5042862;28;20045;-80
2024/01/23 07:26:34;;;;;;;35.10;5.28;;;6.40;99.90;;;;;;5028798;28;20044;-81
2024/01/23 07:28:59;;;;;;;26.10;5.10;;;6.40;99.90;;;;;;5042880;28;20489;-81
2024/01/23 07:31:25;;;;;;;26.67;4.95;;;6.30;99.90;;;;;;5040082;28;20539;-79
2024/01/23 07:33:50;;;;;;;36.78;5.13;;;6.30;99.90;;;;;;5031800;28;20049;-80
2024/01/23 07:36:16;;;;;;;26.40;4.65;;;6.30;99.90;;;;;;5056193;28;20066;-81
2024/01/23 07:38:42;;;;;;;30.73;5.45;;;6.30;99.90;;;;;;5054754;28;20048;-80
2024/01/23 07:41:07;;;;;;;21.00;4.15;;;6.30;99.90;;;;;;5072761;28;20510;-81
2024/01/23 07:43:33;;;;;;;32.67;5.72;;;6.30;99.90;;;;;;5046155;28;20090;-80
2024/01/23 07:45:59;;;;;;;22.92;5.57;;;6.20;99.90;;;;;;5036399;28;20040;-80
2024/01/23 07:48:27;;;;;;;25.38;4.60;;;6.40;99.90;;;;;;5055421;28;20531;-80
2024/01/23 07:50:52;;;;;;;25.17;4.85;;;6.40;99.90;;;;;;5056249;28;20115;-80
2024/01/23 07:53:18;;;;;;;21.25;4.82;;;6.30;99.90;;;;;;5055836;28;20170;-81
2024/01/23 07:55:43;;;;;;;26.20;4.00;;;6.20;99.90;;;;;;5071837;28;20163;-81
2024/01/23 07:58:12;;;;;;;11.68;2.80;;;6.20;99.90;;;;;;5037174;28;20044;-81
2024/01/23 08:00:38;;;;;;;23.52;4.15;;;6.40;99.90;;;;;;5033355;28;20171;-81
2024/01/23 08:03:04;;;;;;;32.70;5.93;;;6.30;99.90;;;;;;5036447;28;20032;-80
2024/01/23 08:05:30;;;;;;;20.65;3.90;;;6.30;99.90;;;;;;5038681;28;20037;-81
2024/01/23 08:07:55;;;;;;;25.25;5.35;;;6.40;99.90;;;;;;5037993;28;20033;-80
2024/01/23 08:10:24;;;;;;;22.80;4.20;;;6.50;99.90;;;;;;5053765;28;20039;-81
2024/01/23 08:12:50;;;;;;;30.15;4.85;;;6.50;99.90;;;;;;5046959;28;20038;-81
2024/01/23 08:15:17;;;;;;;22.98;3.88;;;6.50;99.90;;;;;;5054836;28;20051;-81
2024/01/23 08:17:43;;;;;;;26.23;4.47;;;6.50;99.90;;;;;;5039246;28;20504;-81
2024/01/23 08:20:10;;;;;;;27.27;3.85;;;6.40;99.90;;;;;;5055218;28;20036;-81
2024/01/23 08:22:35;;;;;;;11.90;2.97;;;6.40;99.90;;;;;;5045653;28;20441;-81
2024/01/23 08:25:01;;;;;;;27.00;3.63;;;6.50;99.90;;;;;;5038172;28;20138;-81
2024/01/23 08:27:27;;;;;;;28.77;4.57;;;6.40;99.90;;;;;;5038277;28;20076;-81
2024/01/23 08:29:52;;;;;;;22.42;4.15;;;6.40;99.90;;;;;;5037917;28;20071;-81
2024/01/23 08:32:18;;;;;;;22.27;4.07;;;6.30;99.90;;;;;;5035801;28;20032;-81
2024/01/23 08:34:44;;;;;;;29.27;4.63;;;6.40;99.90;;;;;;5046509;28;20032;-81
2024/01/23 08:37:10;;;;;;;25.42;4.05;;;6.30;99.90;;;;;;5057485;28;20037;-81
2024/01/23 08:39:35;;;;;;;25.33;4.70;;;6.40;99.90;;;;;;5048169;28;20051;-81
2024/01/23 08:42:01;;;;;;;25.27;5.10;;;6.40;99.90;;;;;;5053954;28;20036;-81
2024/01/23 08:44:27;;;;;;;20.42;3.67;;;6.30;99.90;;;;;;5031303;28;20131;-81
2024/01/23 08:46:52;;;;;;;26.63;4.32;;;6.40;99.90;;;;;;5038144;28;20496;-81
2024/01/23 08:49:18;;;;;;;23.88;3.72;;;6.50;99.90;;;;;;5054677;28;20039;-80
2024/01/23 08:51:43;;;;;;;24.23;3.97;;;6.30;99.90;;;;;;5055420;28;20158;-81
2024/01/23 08:54:09;;;;;;;25.75;4.38;;;6.30;99.90;;;;;;5036341;28;20045;-81
2024/01/23 08:56:35;;;;;;;22.52;3.53;;;6.40;99.90;;;;;;5038477;28;20032;-81
2024/01/23 08:59:01;;;;;;;23.98;3.78;;;6.30;99.90;;;;;;5054622;28;20084;-81
2024/01/23 09:01:26;;;;;;;24.83;4.45;;;6.40;99.90;;;;;;5037475;28;20052;-81
2024/01/23 09:03:52;;;;;;;24.77;4.38;;;6.30;99.90;;;;;;5037446;28;20036;-81
2024/01/23 09:06:18;;;;;;;20.30;4.55;;;6.30;99.90;;;;;;5055044;28;20492;-82
2024/01/23 09:08:43;;;;;;;21.17;4.32;;;6.40;99.90;;;;;;5049588;28;20055;-81
2024/01/23 09:11:09;;;;;;;24.88;4.53;;;6.40;99.90;;;;;;5058034;28;20036;-81
2024/01/23 09:13:34;;;;;;;27.92;4.60;;;6.40;99.90;;;;;;5040974;28;20153;-81
2024/01/23 09:16:01;;;;;;;24.02;4.45;;;6.40;99.90;;;;;;5041894;28;20032;-80
2024/01/23 09:18:30;;;;;;;26.30;4.97;;;6.50;99.90;;;;;;5042180;28;20037;-82
2024/01/23 09:20:56;;;;;;;23.98;3.47;;;6.60;99.90;;;;;;5041709;28;20036;-81
2024/01/23 09:23:22;;;;;;;25.77;4.00;;;6.60;99.90;;;;;;5056972;28;20040;-81
2024/01/23 09:25:49;;;;;;;25.13;4.50;;;6.50;99.90;;;;;;5050368;28;20093;-81
2024/01/23 09:28:15;;;;;;;20.67;3.10;;;6.60;99.90;;;;;;5078474;28;20040;-82
2024/01/23 09:30:40;;;;;;;18.13;4.32;;;6.70;99.90;;;;;;5074563;28;20481;-81
2024/01/23 09:33:06;;;;;;;16.38;3.10;;;6.80;99.90;;;;;;5046885;28;20071;-81
2024/01/23 09:35:33;;;;;;;21.65;4.43;;;6.80;99.90;;;;;;5056059;28;20469;-81
2024/01/23 09:37:58;;;;;;;30.27;5.38;;;6.80;99.90;;;;;;5041426;28;20075;-81
2024/01/23 09:40:24;;;;;;;14.88;3.90;;;6.80;99.90;;;;;;5058029;28;20068;-80
2024/01/23 09:42:55;;;;;;;20.50;3.50;;;6.90;99.90;;;;;;5059241;28;20122;-81
2024/01/23 09:45:27;;;;;;;30.05;4.43;;;7.00;99.90;;;;;;5040034;28;20036;-80
2024/01/23 09:47:53;;;;;;;27.08;5.22;;;6.80;99.90;;;;;;5058321;28;20469;-81
2024/01/23 09:50:19;;;;;;;27.60;4.60;;;6.90;99.90;;;;;;5057542;28;20119;-81
2024/01/23 09:52:46;;;;;;;22.67;3.67;;;7.00;99.90;;;;;;5039026;28;20036;-75
2024/01/23 09:55:12;;;;;;;17.25;3.53;;;7.00;99.90;;;;;;5057171;28;20068;-82
2024/01/23 09:57:49;;;;;;;14.60;2.92;;;7.00;99.90;;;;;;5047894;28;20397;-81
2024/01/23 10:00:15;;;;;;;24.92;3.70;;;7.20;99.90;;;;;;5020055;28;20462;-82
2024/01/23 10:02:42;;;;;;;25.90;5.35;;;7.30;99.90;;;;;;5069959;28;20079;-81
2024/01/23 10:05:09;;;;;;;26.50;4.90;;;7.30;99.90;;;;;;5038849;28;20485;-81
2024/01/23 10:07:36;;;;;;;23.58;4.55;;;7.30;99.90;;;;;;5039764;28;20056;-81
2024/01/23 10:10:09;;;;;;;27.83;5.50;;;7.40;99.90;;;;;;5039223;28;20048;-81
2024/01/23 10:12:34;;;;;;;27.83;4.75;;;7.20;99.90;;;;;;5027850;28;20037;-81
2024/01/23 10:15:00;;;;;;;17.38;3.60;;;7.30;99.90;;;;;;5031894;28;20044;-81
2024/01/23 10:17:26;;;;;;;13.38;3.17;;;7.30;99.90;;;;;;5055244;28;20115;-82
2024/01/23 10:19:52;;;;;;;22.30;4.90;;;7.40;99.90;;;;;;5056093;28;20508;-81
2024/01/23 10:22:18;;;;;;;21.13;3.33;;;7.40;99.90;;;;;;5052554;28;20166;-82
2024/01/23 10:24:44;;;;;;;22.63;4.28;;;7.40;99.90;;;;;;5035916;28;20044;-82
2024/01/23 10:27:10;;;;;;;26.77;5.18;;;7.40;99.90;;;;;;5038248;28;20040;-81
2024/01/23 10:29:35;;;;;;;27.58;4.78;;;7.50;99.90;;;;;;5055883;28;20492;-81
2024/01/23 10:32:04;;;;;;;32.10;5.40;;;7.50;99.90;;;;;;5039841;28;20041;-82
2024/01/23 10:34:31;;;;;;;19.90;3.63;;;7.50;99.90;;;;;;5054608;28;20040;-82
2024/01/23 10:36:58;;;;;;;21.00;3.60;;;7.60;99.90;;;;;;5037927;28;20032;-80
2024/01/23 10:39:25;;;;;;;22.17;4.60;;;7.70;99.90;;;;;;5035510;28;20163;-81
2024/01/23 10:41:52;;;;;;;21.10;3.88;;;7.70;99.90;;;;;;5063947;28;20497;-81
2024/01/23 10:44:21;;;;;;;22.25;3.75;;;7.70;99.90;;;;;;5053841;28;20064;-81
2024/01/23 10:46:49;;;;;;;23.35;4.50;;;7.70;99.90;;;;;;5050492;28;20029;-82
2024/01/23 10:49:15;;;;;;;26.17;5.43;;;7.80;99.90;;;;;;5035536;28;20094;-81
2024/01/23 10:51:45;;;;;;;27.98;4.63;;;7.80;99.90;;;;;;5055693;28;20040;-81
2024/01/23 10:54:43;;;;;;;26.38;5.00;;;7.90;99.90;;;;;;5053840;28;20492;-81
2024/01/23 10:57:15;;;;;;;26.13;3.67;;;8.00;99.90;;;;;;5038275;28;20462;-82
2024/01/23 10:59:46;;;;;;;26.13;5.30;;;8.00;99.90;;;;;;5012346;28;1103699;-81
2024/01/23 11:02:39;;;;;;;16.67;3.25;;;8.00;99.90;;;;;;5051460;28;20094;-81
2024/01/23 11:05:05;;;;;;;24.88;3.60;;;8.10;99.90;;;;;;5041505;28;20048;-81
2024/01/23 11:08:16;;;;;;;16.08;3.15;;;8.20;99.90;;;;;;5044351;28;20054;-81
2024/01/23 11:10:56;;;;;;;14.18;3.20;;;8.30;99.90;;;;;;5043041;28;20051;-82
2024/01/23 11:13:25;;;;;;;23.23;3.92;;;8.30;99.90;;;;;;5038568;28;20043;-81
2024/01/23 11:15:51;;;;;;;23.70;4.72;;;8.40;99.90;;;;;;5057353;28;20332;-81
2024/01/23 11:18:23;;;;;;;16.88;3.28;;;8.40;99.90;;;;;;5056417;28;20532;-81
2024/01/23 11:21:10;;;;;;;;;;;8.50;99.90;;;;;;5056773;28;20389;-82
2024/01/23 11:23:38;;;;;;;14.25;3.90;;;8.50;99.90;;;;;;5057114;28;20368;-80
2024/01/23 11:26:19;;;;;;;10.63;3.03;;;8.50;99.90;;;;;;5065489;28;20053;-82
2024/01/23 11:28:50;;;;;;;24.52;4.03;;;8.50;99.90;;;;;;5032022;28;20055;-82
2024/01/23 11:31:19;;;;;;;22.83;4.25;;;8.30;99.90;;;;;;5031760;28;20039;-81
2024/01/23 11:33:45;;;;;;;22.00;3.95;;;8.30;99.90;;;;;;5029772;28;20036;-81
2024/01/23 11:36:28;;;;;;;16.25;4.13;;;8.40;99.90;;;;;;5035616;28;20036;-80
2024/01/23 11:38:57;;;;;;;24.55;4.60;;;8.30;99.90;;;;;;5053070;28;20400;-80
2024/01/23 11:41:27;;;;;;;18.83;3.78;;;8.30;99.90;;;;;;5044698;28;20056;-81
2024/01/23 11:44:04;;;;;;;22.80;3.38;;;8.10;99.90;;;;;;5041182;28;20375;-81
2024/01/23 11:46:33;;;;;;;24.25;4.60;;;8.10;99.90;;;;;;5053434;28;20037;-81
2024/01/23 11:48:59;;;;;;;16.40;3.40;;;8.20;99.90;;;;;;5054165;28;20090;-81
2024/01/23 11:51:28;;;;;;;21.85;4.43;;;8.10;99.90;;;;;;5039191;28;20032;-81
2024/01/23 11:54:00;;;;;;;18.50;3.38;;;8.10;99.90;;;;;;5040810;28;20109;-81
2024/01/23 11:56:29;;;;;;;22.88;3.25;;;7.90;99.90;;;;;;5037647;28;20068;-81
2024/01/23 11:58:58;;;;;;;16.45;2.92;;;8.10;99.90;;;;;;5038117;28;20048;-81
2024/01/23 12:01:27;;;;;;;18.65;3.72;;;8.20;99.90;;;;;;5064120;28;20520;-82
2024/01/23 12:03:54;;;;;;;13.35;2.60;;;8.10;99.90;;;;;;5050823;28;20041;-81
2024/01/23 12:06:21;;;;;;;16.42;3.95;;;8.20;99.90;;;;;;5042262;28;20045;-81
2024/01/23 12:08:46;;;;;;;26.05;5.35;;;8.20;99.90;;;;;;5051032;28;20504;-80
2024/01/23 12:11:14;;;;;;;34.78;6.90;;;8.20;99.90;;;;;;5055175;28;20033;-81
2024/01/23 12:13:40;;;;;;;18.95;3.65;;;8.10;99.90;;;;;;5035791;28;20029;-81
2024/01/23 12:16:09;;;;;;;20.50;3.85;;;8.10;99.90;;;;;;5038559;28;20497;-81
2024/01/23 12:18:35;;;;;;;17.00;2.70;;;8.10;99.90;;;;;;5054287;28;20123;-81
2024/01/23 12:21:03;;;;;;;13.80;2.95;;;8.30;99.90;;;;;;5054979;28;20124;-82
2024/01/23 12:23:29;;;;;;;28.92;4.05;;;8.50;99.90;;;;;;5051565;28;20036;-81
2024/01/23 12:25:55;;;;;;;13.98;2.47;;;8.30;99.90;;;;;;5054543;28;20222;-81
2024/01/23 12:28:22;;;;;;;16.77;3.88;;;8.40;99.90;;;;;;5053277;28;20044;-81
2024/01/23 12:30:48;;;;;;;12.80;2.90;;;8.50;99.90;;;;;;5051434;28;20033;-80
2024/01/23 12:33:17;;;;;;;13.90;2.90;;;8.50;99.90;;;;;;5037398;28;20032;-82
2024/01/23 12:35:46;;;;;;;21.17;3.92;;;8.50;99.90;;;;;;5051188;28;20032;-80
2024/01/23 12:38:19;;;;;;;21.42;3.67;;;8.40;99.90;;;;;;5054958;28;20382;-81
2024/01/23 12:40:46;;;;;;;9.95;2.17;;;8.30;99.90;;;;;;5037307;28;20501;-82
2024/01/23 12:43:12;;;;;;;17.50;3.25;;;8.30;99.90;;;;;;5047563;28;20443;-81
2024/01/23 12:45:38;;;;;;;19.23;4.00;;;8.40;99.90;;;;;;5035811;28;20029;-80